עמוד ראשי
METAR-TAF:

METAR-TAF

שדות תעופה :

Fort Pierce, פלורידה, ארצות הברית

קו רוחב: 27-29-53N, קו אורך: 080-22-36W, גובה: 8מטר

תצפית מזג אוויר נוכחית

הדו"ח נערך לפני 27דקות, בשעה 18:53 UTC
רוח 12קשר מכיוון מזרח/צפון-מזרח
טמפרטורת 31 צלסיוס
לחות 63%
לחץ 1016 hPa
ראות: 16.1קילומטר
עננים פזורים בגובה 2600רגל

METAR: KFPR 171853Z 07012KT 10SM SCT026 31/23 A3001 RMK AO2 SLP163 T03060228

זמן: 15:20 (19:20 UTC)

תחזית

הדו"ח נערך לפני 1 שעות ו 57דקות, בשעה 17:23 UTC
תחזית בתוקף מ 17 ב 18 UTC עד 18 ב 18 UTC
רוח 16קשר מכיוון מזרח עם משבים עד 25קשר
ראות: 10קילומטר
עננים פזורים בגובה 3000רגל
עננים פזורים בגובה 5000רגל
עננים פזורים בגובה 25000רגל
ממטרים במרחב
מ 18 ב 0000UTC
רוח 12קשר מכיוון מזרח
ראות: 10קילומטר
עננים פזורים בגובה 3500רגל
עננים פזורים בגובה 30000רגל
מ 18 ב 1400UTC
רוח 15קשר מכיוון מזרח עם משבים עד 23קשר
ראות: 10קילומטר
עננים פזורים בגובה 3000רגל
עננים פזורים בגובה 25000רגל

TAF: KFPR 171723Z 1718/1818 10016G25KT P6SM VCSH SCT030 SCT050 SCT250 FM180000 08012KT P6SM SCT035 SCT300 FM181400 09015G23KT P6SM SCT030 SCT250

תצפיות ותחזיות מזג אוויר לגבי יותר מ- 4,000 שדות תעופה ברחבי העולם. דוחות METAR ו- TAF.

התחנות הזמינות מסומנות בנקודות צהובות ואדומות על גבי המפה.

העבר את העכבר לנקודה הצבעונית על מנת לראות את שם התחנה.

לאחר מכן, לחץ כדי לראות את תוכן ואת תחזיות מזג האוויר.

כדי לשנות את המפה: לחץ על הכפתורים הירוקים עם הפלוס השחור כדי להתקרב; על הכפתור הירוק עם המקף כדי להתרחק; או בחיצים הירוקים למפות סמוכות.


METAR-TAF: